Keesler Air Force Base
KBIX : now visible

Airfield :











YOU CAN JOIN US ON...

 
LOGIN :

Register | Disclaimer

   EN    FR    IT 

 









Legend :    VFR   Marginal VFR   IFR   Intensive IFR   Very Intensive IFR
Visi :
Ceiling :
>= 8 km
>= 3000ft
5 to 8 km
1000 to 3000 ft
1500m to 5 km
500 to 1000 ft
800 to 1500m
200 to 500 ft
< 800m
< 200 ft
Symbols :   Thunderstorms  Fog  Heavy snow  Heavy precipitations  Wind > 20 kt






- Airport Elevation : 33 ft


KBIX - Keesler Air Force Base

CURRENT METAR :
  • 080655Z AUTO 11003KT 10SM OVC005 19/19 A3014 RMK AO2 SLP209 T01900185

EXPIRED METARs :
  • 080630Z AUTO 12003KT 10SM OVC005 19/18 A3014 RMK AO2 SLP209
  • 080600Z AUTO 11004KT 8SM BKN006 OVC010 18/18 A3014 RMK AO2 CIG 006V008 SLP209
  • 080540Z AUTO 09004KT 8SM OVC008 18/18 A3015 RMK AO2 CIG 007 RWY04 SLP213
  • 080525Z AUTO 10004KT 8SM OVC007 18/18 A3015 RMK AO2 SLP213
  • 080505Z AUTO 08004KT 9SM SCT006 BKN014 BKN100 18/18 A3015 RMK AO2 CIG 014V100 BKN014 V SCT SLP213

TAF TAF KBIX
Valid from the 08 at 03:00 until the 09 at 09:00 UTC


080300Z 0803/0909 10006KT 9999 SCT013 BKN030 QNH3015INS
BECMG 0804/0805 10006KT 4800 BR BKN005 OVC012 QNH3012INS
BECMG 0815/0816 13009KT 8000 -SHRA BKN005 OVC013 QNH3018INS
BECMG 0904/0905 15015KT 8000 BR FEW004 BKN011 OVC019 QNH3005INS
BECMG 0905/0906 16015KT 8000 -SHRA FEW004 BKN011 OVC019 QNH2998INS TX20/0820Z TN17/0805Z LAST NO AMDS AFT 0905 NEXT 0911
KZHU FIR / North America



MET'MAP, your aeronautical weather chart ! - Copyright ORBIFLY December 2007 - Disclaimer

ORBIFLY MET'MAP TEAM :

Programming & Development : Alexandra Zaïnal
Original concept : Baudouin d'Aumeries
Technical & hardware support : Manuel Goepfert
Assistance : Marc-Olivier Méhu




SOURCES & CREDITS :

   NOAA       Earth
Advisory